Ana Sayfa
METAR-TAF:

METAR-TAF

Havaalanları :

Loja, Ekvador

Enlem: 03-59-45S, Boylam: 079-22-19W, yükseklik: 1236 m

Güncel hava durumu gözlemi

Rapor saat 23:00 UTC de 21 dakika önce yapıldı.
Rüzgar kuzeydoğudan 13 kt
Sıcaklık 26°C
Nem 45%
Basınç 1016 hPa
Görüş mesafesi 10 km veya daha fazla
4000 ft yükseklikte parçalı bulutlu

METAR: SECA 182300Z 04013KT 9999 SCT040 26/13 Q1016

Saat: 18:21 (23:21 UTC)


TAF: eksik

4.000'den fazla havaalanı için hava durumu gözlemleri ve tahminleri (METAR ve TAF raporları).

Kullanılabilir istasyonlar harita üzerinde sarı ve kırmızı noktalarla gösterilir.

İstasyonun adını görmek için fareyi noktanın üzerinde gezdirin.

Sonrasında hava gözlem ve tahminlerini görmek için tıklayın.

Haritayı değiştirmek için: yaklaştırmak için siyah artı işaretli yeşil düğmeye ve uzaklaştırmak için de eksi işaretli düğmeye hızla tıklayın; bitişik haritalar için yeşil okları kullanın.


METAR-TAF: